createdAt,value
2023-02-22T00:02:25.465Z,97600.66
2023-02-22T00:04:54.054Z,97605.88
2023-02-22T00:07:23.887Z,97599.00
2023-02-22T00:09:52.013Z,97597.22
2023-02-22T00:12:20.715Z,97595.63
2023-02-22T00:14:48.895Z,97595.59
2023-02-22T00:17:17.019Z,97576.72
2023-02-22T00:19:45.118Z,97563.72
2023-02-22T00:22:13.211Z,97594.97
2023-02-22T00:24:42.798Z,97584.63
2023-02-22T00:27:11.155Z,97591.44
2023-02-22T00:29:39.263Z,97590.63
2023-02-22T00:32:07.479Z,97598.53
2023-02-22T00:34:35.586Z,97566.03
2023-02-22T00:37:05.720Z,97596.09
2023-02-22T00:39:34.050Z,97597.88
2023-02-22T00:42:04.087Z,97598.75
2023-02-22T00:44:33.177Z,97597.97
2023-02-22T00:47:01.283Z,97595.47
2023-02-22T00:49:29.421Z,97597.28
2023-02-22T00:51:57.576Z,97598.97
2023-02-22T00:54:25.748Z,97580.09
2023-02-22T00:56:53.867Z,97599.94
2023-02-22T00:59:23.402Z,97607.03
2023-02-22T01:01:51.730Z,97608.59
2023-02-22T01:04:20.040Z,97588.91
2023-02-22T01:06:48.412Z,97602.81
2023-02-22T01:09:16.536Z,97606.97
2023-02-22T01:11:45.454Z,97603.53
2023-02-22T01:14:13.562Z,97585.56
2023-02-22T01:16:43.113Z,97603.78
2023-02-22T01:19:12.736Z,97599.63
2023-02-22T01:21:41.697Z,97606.66
2023-02-22T01:24:10.246Z,97618.78
2023-02-22T01:26:38.370Z,97574.84
2023-02-22T01:29:08.080Z,97586.94
2023-02-22T01:31:36.165Z,97608.56
2023-02-22T01:34:05.730Z,97608.59
2023-02-22T01:36:33.883Z,97604.19
2023-02-22T01:39:01.959Z,97607.91
2023-02-22T01:41:30.214Z,97608.06
2023-02-22T01:43:58.302Z,97631.50
2023-02-22T01:46:29.976Z,97617.56
2023-02-22T01:49:02.082Z,97486.69
2023-02-22T01:51:37.603Z,97601.91
2023-02-22T01:54:11.343Z,97614.84
2023-02-22T01:56:47.395Z,97605.38
2023-02-22T01:59:16.254Z,97581.34
2023-02-22T02:01:44.813Z,97607.25
2023-02-22T02:04:17.746Z,97604.44
2023-02-22T02:06:48.450Z,97602.72
2023-02-22T02:09:22.812Z,97598.38
2023-02-22T02:11:51.475Z,97599.31
2023-02-22T02:14:19.690Z,97592.44
2023-02-22T02:16:53.356Z,97439.06
2023-02-22T02:19:33.280Z,97602.00
2023-02-22T02:22:30.297Z,97598.47
2023-02-22T02:25:35.631Z,97601.13
2023-02-22T02:28:39.666Z,97602.91
2023-02-22T02:31:28.909Z,97583.19
2023-02-22T02:34:03.326Z,97606.50
2023-02-22T02:36:37.784Z,97603.91
2023-02-22T02:39:15.471Z,97581.50
2023-02-22T02:41:48.383Z,97607.50
2023-02-22T02:44:23.151Z,97604.91
2023-02-22T02:46:57.738Z,97607.53
2023-02-22T02:49:32.524Z,97423.09
2023-02-22T02:52:02.104Z,97532.47
2023-02-22T02:54:31.523Z,97596.25
2023-02-22T02:56:59.842Z,97603.25
2023-02-22T02:59:30.137Z,97591.06
2023-02-22T03:02:24.718Z,97591.97
2023-02-22T03:05:12.949Z,97597.91
2023-02-22T03:07:50.990Z,97592.66
2023-02-22T03:10:45.069Z,97441.94
2023-02-22T03:13:20.995Z,97495.34
2023-02-22T03:15:55.503Z,97592.78
2023-02-22T03:18:30.322Z,97569.38
2023-02-22T03:21:08.459Z,97596.19
2023-02-22T03:23:45.036Z,97601.44
2023-02-22T03:26:19.570Z,97554.00
2023-02-22T03:28:50.336Z,97487.84
2023-02-22T03:31:24.436Z,97598.91
2023-02-22T03:33:56.860Z,97577.50
2023-02-22T03:36:30.273Z,97561.97
2023-02-22T03:39:01.676Z,97588.72
2023-02-22T03:41:30.927Z,97603.50
2023-02-22T03:44:04.652Z,97602.63
2023-02-22T03:46:34.059Z,97601.75
2023-02-22T03:49:07.760Z,97611.31
2023-02-22T03:51:39.704Z,97609.50
2023-02-22T03:54:09.474Z,97608.72
2023-02-22T03:56:47.496Z,97594.09
2023-02-22T03:59:16.184Z,97618.31
2023-02-22T04:01:44.370Z,97616.63
2023-02-22T04:04:12.666Z,97614.06
2023-02-22T04:06:42.318Z,97550.25
2023-02-22T04:09:10.481Z,97613.97
2023-02-22T04:11:38.697Z,97616.59
2023-02-22T04:14:06.983Z,97612.31
2023-02-22T04:16:35.260Z,97576.06
2023-02-22T04:19:03.418Z,97614.03
2023-02-22T04:21:31.498Z,97609.69
2023-02-22T04:24:01.171Z,97630.50
2023-02-22T04:26:29.325Z,97609.66
2023-02-22T04:28:57.431Z,97604.34
2023-02-22T04:31:25.717Z,97610.44
2023-02-22T04:33:53.844Z,97588.91
2023-02-22T04:36:22.086Z,97608.78
2023-02-22T04:38:50.287Z,97607.09
2023-02-22T04:41:21.019Z,97534.69
2023-02-22T04:43:49.110Z,97605.44
2023-02-22T04:46:17.558Z,97601.13
2023-02-22T04:48:45.947Z,97601.94
2023-02-22T04:51:14.116Z,97596.72
2023-02-22T04:53:42.357Z,97474.38
2023-02-22T04:56:10.535Z,97601.13
2023-02-22T04:58:40.076Z,97567.56
2023-02-22T05:01:08.575Z,97595.94
2023-02-22T05:03:39.015Z,97601.97
2023-02-22T05:06:07.997Z,97597.72
2023-02-22T05:08:36.415Z,97592.63
2023-02-22T05:11:05.285Z,97590.91
2023-02-22T05:13:33.556Z,97531.50
2023-02-22T05:16:04.026Z,97597.88
2023-02-22T05:18:32.305Z,97557.34
2023-02-22T05:21:00.378Z,97587.50
2023-02-22T05:23:28.523Z,97582.31
2023-02-22T05:25:56.652Z,97587.44
2023-02-22T05:28:24.845Z,97571.94
2023-02-22T05:30:53.014Z,97590.88
2023-02-22T05:33:22.553Z,97548.63
2023-02-22T05:35:50.663Z,97567.72
2023-02-22T05:38:18.840Z,97588.34
2023-02-22T05:40:47.030Z,97592.69
2023-02-22T05:43:15.828Z,97592.69
2023-02-22T05:45:44.022Z,97597.03
2023-02-22T05:48:13.045Z,97597.88
2023-02-22T05:50:42.606Z,97576.31
2023-02-22T05:53:10.819Z,97596.94
2023-02-22T05:55:38.970Z,97595.28
2023-02-22T05:58:07.153Z,97519.50
2023-02-22T06:00:35.326Z,97603.94
2023-02-22T06:03:05.853Z,97599.63
2023-02-22T06:05:34.082Z,97606.53
2023-02-22T06:08:04.489Z,97610.78
2023-02-22T06:10:33.044Z,97609.09
2023-02-22T06:13:02.411Z,97586.59
2023-02-22T06:15:30.949Z,97589.19
2023-02-22T06:18:00.270Z,97573.66
2023-02-22T06:20:30.558Z,97606.34
2023-02-22T06:22:59.835Z,97608.91
2023-02-22T06:25:31.565Z,97614.88
2023-02-22T06:28:00.121Z,97581.31
2023-02-22T06:30:29.126Z,97597.66
2023-02-22T06:32:57.704Z,97620.78
2023-02-22T06:35:26.024Z,97626.84
2023-02-22T06:37:54.147Z,97634.72
2023-02-22T06:40:22.584Z,97635.59
2023-02-22T06:42:53.779Z,97613.22
2023-02-22T06:45:22.117Z,97641.72
2023-02-22T06:47:50.908Z,97458.97
2023-02-22T06:50:22.704Z,97646.00
2023-02-22T06:52:51.177Z,97652.00
2023-02-22T06:55:21.962Z,97639.88
2023-02-22T06:57:51.820Z,97629.47
2023-02-22T07:00:22.216Z,97656.91
2023-02-22T07:02:50.626Z,97656.81
2023-02-22T07:05:20.286Z,97660.13
2023-02-22T07:07:49.096Z,97651.38
2023-02-22T07:10:21.518Z,97656.50
2023-02-22T07:12:49.977Z,97654.59
2023-02-22T07:15:21.517Z,97650.94
2023-02-22T07:17:49.388Z,97656.69
2023-02-22T07:20:17.400Z,97664.28
2023-02-22T07:22:45.273Z,97660.63
2023-02-22T07:25:13.397Z,97655.25
2023-02-22T07:27:42.559Z,97651.50
2023-02-22T07:30:16.979Z,97652.94
2023-02-22T07:32:46.945Z,97658.78
2023-02-22T07:35:17.371Z,97650.66
2023-02-22T07:37:45.553Z,97605.72
2023-02-22T07:40:14.098Z,97650.06
2023-02-22T07:42:56.484Z,97624.75
2023-02-22T07:45:25.917Z,97646.81
2023-02-22T07:47:55.876Z,97644.75
2023-02-22T07:50:25.489Z,97646.09
2023-02-22T07:52:56.130Z,97507.28
2023-02-22T07:55:27.707Z,97641.28
2023-02-22T07:57:58.312Z,97561.94
2023-02-22T08:00:28.087Z,97641.75
2023-02-22T08:02:58.129Z,97644.25
2023-02-22T08:05:28.690Z,97549.69
2023-02-22T08:07:57.161Z,97641.38
2023-02-22T08:10:26.914Z,97641.13
2023-02-22T08:12:56.260Z,97648.81
2023-02-22T08:15:26.074Z,97631.25
2023-02-22T08:17:54.662Z,97633.53
2023-02-22T08:20:24.559Z,97638.81
2023-02-22T08:22:53.522Z,97616.31
2023-02-22T08:25:25.362Z,97622.00
2023-02-22T08:27:58.788Z,97619.13
2023-02-22T08:30:27.268Z,97630.19
2023-02-22T08:32:55.611Z,97624.53
2023-02-22T08:35:27.713Z,97616.47
2023-02-22T08:37:58.730Z,97585.81
2023-02-22T08:40:29.279Z,97625.84
2023-02-22T08:42:57.560Z,97626.59
2023-02-22T08:45:25.861Z,97628.31
2023-02-22T08:47:53.999Z,97615.31
2023-02-22T08:50:26.025Z,97623.91
2023-02-22T08:52:55.835Z,97615.91
2023-02-22T08:55:25.117Z,97622.09
2023-02-22T08:57:53.398Z,97624.44
2023-02-22T09:00:25.422Z,97621.44
2023-02-22T09:02:53.813Z,97596.25
2023-02-22T09:05:22.507Z,97568.00
2023-02-22T09:07:52.098Z,97620.91
2023-02-22T09:10:24.541Z,97623.84
2023-02-22T09:12:53.195Z,97621.44
2023-02-22T09:15:21.350Z,97613.00
2023-02-22T09:17:50.155Z,97614.44
2023-02-22T09:20:20.615Z,97622.47
2023-02-22T09:22:50.112Z,97610.88
2023-02-22T09:25:21.323Z,97593.34
2023-02-22T09:27:50.603Z,97610.16
2023-02-22T09:30:23.900Z,97608.22
2023-02-22T09:32:54.079Z,97609.84
2023-02-22T09:35:27.564Z,97607.53
2023-02-22T09:37:57.143Z,97604.34
2023-02-22T09:40:30.731Z,97583.22
2023-02-22T09:43:11.184Z,97605.44
2023-02-22T09:45:49.102Z,97591.72
2023-02-22T09:48:22.316Z,97596.75
2023-02-22T09:50:52.450Z,97567.19
2023-02-22T09:53:29.903Z,97593.38
2023-02-22T09:56:03.594Z,97590.59
2023-02-22T09:58:35.046Z,97594.84
2023-02-22T10:01:20.046Z,97587.63
2023-02-22T10:03:55.678Z,97595.31
2023-02-22T10:06:26.093Z,97586.94
2023-02-22T10:08:58.767Z,97583.63
2023-02-22T10:11:50.855Z,97579.03
2023-02-22T10:14:49.599Z,97577.16
2023-02-22T10:17:30.535Z,97573.53
2023-02-22T10:20:18.248Z,97572.28
2023-02-22T10:22:58.063Z,97488.16
2023-02-22T10:25:29.865Z,97571.56
2023-02-22T10:28:03.769Z,97561.78
2023-02-22T10:30:36.872Z,97560.00
2023-02-22T10:33:11.876Z,97556.28
2023-02-22T10:35:42.128Z,97563.31
2023-02-22T10:38:18.031Z,97543.63
2023-02-22T10:40:51.561Z,97556.03
2023-02-22T10:43:21.178Z,97558.13
2023-02-22T10:45:50.345Z,97546.75
2023-02-22T10:48:21.281Z,97544.09
2023-02-22T10:50:50.657Z,97369.88
2023-02-22T10:53:18.780Z,97539.34
2023-02-22T10:56:17.071Z,97537.44
2023-02-22T10:58:50.538Z,97524.25
2023-02-22T11:01:34.970Z,97534.09
2023-02-22T11:04:08.887Z,97529.81
2023-02-22T11:06:37.760Z,97522.25
2023-02-22T11:09:11.293Z,97517.59
2023-02-22T11:11:41.321Z,97431.31
2023-02-22T11:14:11.918Z,97503.06
2023-02-22T11:16:43.626Z,97503.19
2023-02-22T11:19:21.157Z,97474.22
2023-02-22T11:21:53.101Z,97500.88
2023-02-22T11:24:24.926Z,97494.69
2023-02-22T11:26:56.594Z,97487.09
2023-02-22T11:29:32.128Z,97477.75
2023-02-22T11:32:04.263Z,97478.09
2023-02-22T11:34:36.955Z,97381.66
2023-02-22T11:37:29.455Z,97474.38
2023-02-22T11:40:18.402Z,97442.34
2023-02-22T11:42:47.014Z,97459.00
2023-02-22T11:45:21.359Z,97412.22
2023-02-22T11:47:53.806Z,97440.47
2023-02-22T11:50:33.166Z,97441.94
2023-02-22T11:53:25.413Z,97436.31
2023-02-22T11:56:03.171Z,97436.16
2023-02-22T11:58:43.342Z,97428.34
2023-02-22T12:01:28.052Z,97428.75
2023-02-22T12:04:29.874Z,97421.03
2023-02-22T12:07:21.915Z,97421.09
2023-02-22T12:09:56.215Z,97420.34
2023-02-22T12:12:35.304Z,97426.72
2023-02-22T12:15:09.887Z,97392.63
2023-02-22T12:17:59.816Z,97416.66
2023-02-22T12:20:37.268Z,97404.84
2023-02-22T12:23:16.406Z,97404.78
2023-02-22T12:25:58.572Z,97396.69
2023-02-22T12:28:34.994Z,97399.91
2023-02-22T12:31:15.583Z,97375.16
2023-02-22T12:33:53.304Z,97392.72
2023-02-22T12:36:32.496Z,97385.50
2023-02-22T12:39:07.606Z,97377.31
2023-02-22T12:41:41.640Z,97355.03
2023-02-22T12:44:17.463Z,97375.03
2023-02-22T12:46:48.979Z,97368.53
2023-02-22T12:49:28.419Z,97351.13
2023-02-22T12:52:12.425Z,97362.00
2023-02-22T12:54:49.919Z,97335.84
2023-02-22T12:57:25.930Z,97333.13
2023-02-22T12:59:57.480Z,97352.94
2023-02-22T13:02:32.224Z,97347.16
2023-02-22T13:05:02.546Z,97352.03
2023-02-22T13:07:47.048Z,97350.16
2023-02-22T13:10:27.739Z,97326.13
2023-02-22T13:13:04.025Z,97317.22
2023-02-22T13:15:44.961Z,97333.75
2023-02-22T13:18:20.325Z,97275.19
2023-02-22T13:20:56.154Z,97315.84
2023-02-22T13:23:39.095Z,97323.88
2023-02-22T13:26:13.434Z,97327.16
2023-02-22T13:28:47.091Z,97320.03
2023-02-22T13:31:40.046Z,97322.41
2023-02-22T13:34:50.661Z,97297.78
2023-02-22T13:37:38.586Z,97316.28
2023-02-22T13:40:38.407Z,97316.38
2023-02-22T13:43:33.345Z,97284.22
2023-02-22T13:46:34.095Z,97312.13
2023-02-22T13:49:37.407Z,97310.56
2023-02-22T13:52:09.604Z,97319.28
2023-02-22T13:54:44.971Z,97304.75
2023-02-22T13:57:24.784Z,97292.97
2023-02-22T14:00:21.171Z,97291.13
2023-02-22T14:03:02.482Z,97290.50
2023-02-22T14:05:51.099Z,97290.56
2023-02-22T14:08:44.405Z,97285.09
2023-02-22T14:11:57.954Z,97274.28
2023-02-22T14:14:27.662Z,97275.84
2023-02-22T14:17:23.069Z,97279.88
2023-02-22T14:20:21.050Z,97267.94
2023-02-22T14:22:53.027Z,97260.44
2023-02-22T14:25:33.897Z,97256.50
2023-02-22T14:28:04.058Z,97264.56
2023-02-22T14:30:38.127Z,97259.63
2023-02-22T14:33:51.348Z,97263.22
2023-02-22T14:36:22.389Z,97242.63
2023-02-22T14:38:54.853Z,97261.22
2023-02-22T14:41:27.592Z,97247.38
2023-02-22T14:43:57.784Z,97262.19
2023-02-22T14:46:33.013Z,97260.63
2023-02-22T14:49:05.376Z,97258.47
2023-02-22T14:51:41.959Z,97257.56
2023-02-22T14:54:14.762Z,97261.31
2023-02-22T14:56:49.321Z,97265.69
2023-02-22T14:59:21.363Z,97143.97
2023-02-22T15:02:05.989Z,97251.00
2023-02-22T15:04:39.123Z,97254.38
2023-02-22T15:07:21.150Z,97235.41
2023-02-22T15:09:49.855Z,97249.25
2023-02-22T15:12:25.734Z,97118.47
2023-02-22T15:15:14.118Z,97268.78
2023-02-22T15:17:46.594Z,97246.56
2023-02-22T15:20:20.841Z,97251.63
2023-02-22T15:22:50.908Z,97102.31
2023-02-22T15:25:26.315Z,97269.47
2023-02-22T15:27:54.565Z,97267.75
2023-02-22T15:30:27.010Z,97265.44
2023-02-22T15:33:04.508Z,97249.56
2023-02-22T15:35:34.207Z,97271.25
2023-02-22T15:38:06.212Z,97272.34
2023-02-22T15:40:35.585Z,97268.66
2023-02-22T15:43:08.973Z,97272.78
2023-02-22T15:45:43.187Z,97270.34
2023-02-22T15:48:14.660Z,97271.75
2023-02-22T15:51:04.257Z,97264.53
2023-02-22T15:53:40.176Z,97152.97
2023-02-22T15:56:13.546Z,97261.88
2023-02-22T15:58:42.378Z,97168.03
2023-02-22T16:01:14.289Z,97271.44
2023-02-22T16:03:47.236Z,97218.91
2023-02-22T16:06:22.794Z,97264.88
2023-02-22T16:08:55.537Z,97290.44
2023-02-22T16:11:30.208Z,97259.97
2023-02-22T16:14:02.602Z,97271.13
2023-02-22T16:16:32.900Z,97184.50
2023-02-22T16:19:33.374Z,97237.63
2023-02-22T16:22:04.091Z,97191.94
2023-02-22T16:24:34.448Z,97270.66
2023-02-22T16:27:16.780Z,97258.66
2023-02-22T16:29:45.298Z,97280.28
2023-02-22T16:32:15.498Z,97287.41
2023-02-22T16:34:45.152Z,97273.25
2023-02-22T16:37:23.877Z,97279.16
2023-02-22T16:39:52.578Z,97276.78
2023-02-22T16:42:24.364Z,97283.97
2023-02-22T16:44:53.355Z,97289.06
2023-02-22T16:47:21.757Z,97202.50
2023-02-22T16:49:53.142Z,97294.91
2023-02-22T16:52:22.028Z,97209.63
2023-02-22T16:54:50.335Z,97297.03
2023-02-22T16:57:21.543Z,97256.00
2023-02-22T16:59:52.282Z,97287.81
2023-02-22T17:02:22.523Z,97297.69
2023-02-22T17:04:52.065Z,97295.44
2023-02-22T17:07:23.919Z,97296.53
2023-02-22T17:09:52.301Z,97296.03
2023-02-22T17:12:20.581Z,97275.66
2023-02-22T17:14:48.758Z,97302.38
2023-02-22T17:17:17.463Z,97301.56
2023-02-22T17:19:45.821Z,97301.88
2023-02-22T17:22:20.467Z,97301.03
2023-02-22T17:24:49.353Z,97299.06
2023-02-22T17:27:17.486Z,97273.06
2023-02-22T17:29:45.731Z,97300.41
2023-02-22T17:32:15.036Z,97281.84
2023-02-22T17:34:43.246Z,97247.72
2023-02-22T17:37:11.914Z,97295.53
2023-02-22T17:39:41.435Z,97303.59
2023-02-22T17:42:09.585Z,97302.03
2023-02-22T17:44:38.017Z,97301.19
2023-02-22T17:47:07.206Z,97299.50
2023-02-22T17:49:35.335Z,97281.63
2023-02-22T17:52:06.416Z,97285.22
2023-02-22T17:54:34.808Z,97308.63
2023-02-22T17:57:04.589Z,97305.38
2023-02-22T17:59:32.925Z,97284.66
2023-02-22T18:02:01.155Z,97293.81
2023-02-22T18:04:29.420Z,97296.91
2023-02-22T18:06:57.558Z,97295.47
2023-02-22T18:09:25.828Z,97293.84
2023-02-22T18:11:53.983Z,97294.00
2023-02-22T18:14:23.815Z,97289.81
2023-02-22T18:16:52.055Z,97286.50
2023-02-22T18:19:23.083Z,97273.91
2023-02-22T18:21:52.683Z,97289.28
2023-02-22T18:24:20.921Z,97299.88
2023-02-22T18:26:50.592Z,97297.53
2023-02-22T18:29:18.862Z,97298.31
2023-02-22T18:31:48.498Z,97294.28
2023-02-22T18:34:17.736Z,97297.88
2023-02-22T18:36:45.982Z,97292.78
2023-02-22T18:39:14.165Z,97286.75
2023-02-22T18:41:42.377Z,97295.59
2023-02-22T18:44:11.216Z,97241.75
2023-02-22T18:46:39.542Z,97297.66
2023-02-22T18:49:12.017Z,97228.19
2023-02-22T18:51:43.658Z,97278.84
2023-02-22T18:54:13.459Z,97258.59
2023-02-22T18:56:55.145Z,97266.13
2023-02-22T18:59:23.330Z,97288.34
2023-02-22T19:01:51.595Z,97267.06
2023-02-22T19:04:22.027Z,97288.47
2023-02-22T19:06:50.330Z,97286.09
2023-02-22T19:09:18.621Z,97283.72
2023-02-22T19:11:48.522Z,97252.22
2023-02-22T19:14:18.033Z,97290.16
2023-02-22T19:16:47.803Z,97178.88
2023-02-22T19:19:21.080Z,97269.72
2023-02-22T19:21:52.456Z,97288.56
2023-02-22T19:24:21.526Z,97291.25
2023-02-22T19:26:53.661Z,97273.22
2023-02-22T19:29:24.435Z,97290.53
2023-02-22T19:31:53.973Z,97289.78
2023-02-22T19:34:25.021Z,97133.25
2023-02-22T19:36:56.079Z,97291.69
2023-02-22T19:39:26.239Z,97296.09
2023-02-22T19:41:57.604Z,97272.97
2023-02-22T19:44:27.470Z,97284.38
2023-02-22T19:46:56.406Z,97298.47
2023-02-22T19:51:58.357Z,97310.25
2023-02-22T19:54:26.774Z,97317.81
2023-02-22T19:56:58.503Z,97296.53
2023-02-22T19:59:27.001Z,97311.47
2023-02-22T20:01:56.414Z,97306.31
2023-02-22T20:04:25.218Z,97304.00
2023-02-22T20:06:57.683Z,97312.53
2023-02-22T20:09:33.809Z,97290.25
2023-02-22T20:12:02.129Z,97318.63
2023-02-22T20:14:30.705Z,97322.13
2023-02-22T20:17:00.587Z,97322.28
2023-02-22T20:19:29.905Z,97326.56
2023-02-22T20:22:00.714Z,97268.09
2023-02-22T20:24:28.976Z,97304.31
2023-02-22T20:26:58.664Z,97315.44
2023-02-22T20:29:30.930Z,97321.69
2023-02-22T20:32:02.860Z,97315.75
2023-02-22T20:34:34.224Z,97320.13
2023-02-22T20:37:05.725Z,97318.41
2023-02-22T20:39:34.061Z,97322.84
2023-02-22T20:42:04.869Z,97315.19
2023-02-22T20:44:33.337Z,97316.97
2023-02-22T20:47:04.023Z,97211.75
2023-02-22T20:49:32.397Z,97228.06
2023-02-22T20:52:00.963Z,97322.38
2023-02-22T20:54:30.665Z,97321.53
2023-02-22T20:56:59.280Z,97330.44
2023-02-22T20:59:29.287Z,97324.94
2023-02-22T21:01:57.597Z,97314.03
2023-02-22T21:04:26.996Z,97314.59
2023-02-22T21:06:55.690Z,97291.41
2023-02-22T21:09:23.857Z,97324.72
2023-02-22T21:11:53.391Z,97314.56
2023-02-22T21:14:23.952Z,97330.03
2023-02-22T21:16:53.520Z,97313.03
2023-02-22T21:19:26.588Z,97327.66
2023-02-22T21:22:01.505Z,97327.66
2023-02-22T21:24:30.763Z,97326.00
2023-02-22T21:27:00.486Z,97327.66
2023-02-22T21:29:29.476Z,97319.75
2023-02-22T21:31:58.210Z,97288.09
2023-02-22T21:34:26.660Z,97314.78
2023-02-22T21:36:54.986Z,97238.47
2023-02-22T21:39:28.346Z,97317.47
2023-02-22T21:42:02.112Z,97284.28
2023-02-22T21:44:30.869Z,97137.50
2023-02-22T21:46:59.080Z,97291.97
2023-02-22T21:49:27.247Z,97274.88
2023-02-22T21:51:56.565Z,97292.13
2023-02-22T21:54:25.022Z,97286.19
2023-02-22T21:56:54.592Z,97309.41
2023-02-22T21:59:24.569Z,97302.50
2023-02-22T22:01:56.231Z,97310.47
2023-02-22T22:04:27.852Z,97309.56
2023-02-22T22:06:58.084Z,97242.00
2023-02-22T22:09:29.212Z,97298.41
2023-02-22T22:11:59.718Z,97289.28
2023-02-22T22:14:29.398Z,97306.56
2023-02-22T22:16:59.601Z,97304.00
2023-02-22T22:19:29.269Z,97302.91
2023-02-22T22:21:57.749Z,97324.50
2023-02-22T22:24:27.240Z,97297.63
2023-02-22T22:26:55.569Z,97243.59
2023-02-22T22:29:24.856Z,97280.44
2023-02-22T22:31:54.613Z,97297.56
2023-02-22T22:34:24.462Z,97299.47
2023-02-22T22:36:52.810Z,97297.22
2023-02-22T22:39:21.308Z,97293.78
2023-02-22T22:41:49.906Z,97292.81
2023-02-22T22:44:22.417Z,97288.59
2023-02-22T22:46:53.823Z,97298.16
2023-02-22T22:49:25.479Z,97267.31
2023-02-22T22:51:54.615Z,97299.28
2023-02-22T22:54:22.882Z,97269.22
2023-02-22T22:56:50.997Z,97287.09
2023-02-22T22:59:19.201Z,97293.16
2023-02-22T23:01:47.443Z,97298.25
2023-02-22T23:04:17.521Z,97252.00
2023-02-22T23:06:50.009Z,97289.13
2023-02-22T23:09:21.942Z,97136.38
2023-02-22T23:11:53.493Z,97294.38
2023-02-22T23:14:24.923Z,97289.13
2023-02-22T23:16:56.651Z,97285.66
2023-02-22T23:19:24.822Z,97288.28
2023-02-22T23:21:56.047Z,97284.81
2023-02-22T23:24:27.442Z,97257.22
2023-02-22T23:27:00.296Z,97288.97
2023-02-22T23:29:30.006Z,97288.19
2023-02-22T23:31:58.986Z,97221.28
2023-02-22T23:34:29.089Z,97272.06
2023-02-22T23:36:58.734Z,97283.44
2023-02-22T23:39:27.352Z,97275.72
2023-02-22T23:41:56.906Z,97284.53
2023-02-22T23:44:27.161Z,97281.81
2023-02-22T23:46:56.091Z,97259.53
2023-02-22T23:49:26.443Z,97273.13
2023-02-22T23:51:55.055Z,97228.78
2023-02-22T23:54:24.975Z,97179.56
2023-02-22T23:56:56.994Z,97268.94
2023-02-22T23:59:26.112Z,97273.50
